sensor_id;sensor_type;location;lat;lon;timestamp;P1;durP1;ratioP1;P2;durP2;ratioP2
28170;SDS011;15458;53.346;-1.688;2023-05-19T00:02:10;7.50;;;4.05;;
28170;SDS011;15458;53.346;-1.688;2023-05-19T00:04:36;9.57;;;4.28;;
28170;SDS011;15458;53.346;-1.688;2023-05-19T00:07:04;8.32;;;4.10;;
28170;SDS011;15458;53.346;-1.688;2023-05-19T00:09:33;9.02;;;4.57;;
28170;SDS011;15458;53.346;-1.688;2023-05-19T00:12:06;8.65;;;4.25;;
28170;SDS011;15458;53.346;-1.688;2023-05-19T00:17:23;7.18;;;4.22;;
28170;SDS011;15458;53.346;-1.688;2023-05-19T00:19:51;10.27;;;4.35;;
28170;SDS011;15458;53.346;-1.688;2023-05-19T00:22:28;6.85;;;3.85;;
28170;SDS011;15458;53.346;-1.688;2023-05-19T00:24:58;12.82;;;4.30;;
28170;SDS011;15458;53.346;-1.688;2023-05-19T00:30:00;8.68;;;3.80;;
28170;SDS011;15458;53.346;-1.688;2023-05-19T00:32:26;11.98;;;4.32;;
28170;SDS011;15458;53.346;-1.688;2023-05-19T00:34:52;12.52;;;4.40;;
28170;SDS011;15458;53.346;-1.688;2023-05-19T00:39:56;9.05;;;4.18;;
28170;SDS011;15458;53.346;-1.688;2023-05-19T00:42:25;9.15;;;4.65;;
28170;SDS011;15458;53.346;-1.688;2023-05-19T00:44:51;10.38;;;4.30;;
28170;SDS011;15458;53.346;-1.688;2023-05-19T00:47:17;9.40;;;3.92;;
28170;SDS011;15458;53.346;-1.688;2023-05-19T00:49:43;11.88;;;3.97;;
28170;SDS011;15458;53.346;-1.688;2023-05-19T00:52:08;14.10;;;4.70;;
28170;SDS011;15458;53.346;-1.688;2023-05-19T00:54:34;8.10;;;4.32;;
28170;SDS011;15458;53.346;-1.688;2023-05-19T00:57:03;9.45;;;3.90;;
28170;SDS011;15458;53.346;-1.688;2023-05-19T00:59:29;8.57;;;4.22;;
28170;SDS011;15458;53.346;-1.688;2023-05-19T01:01:58;7.25;;;4.15;;
28170;SDS011;15458;53.346;-1.688;2023-05-19T01:04:24;9.75;;;5.50;;
28170;SDS011;15458;53.346;-1.688;2023-05-19T01:06:50;7.10;;;4.00;;
28170;SDS011;15458;53.346;-1.688;2023-05-19T01:09:20;10.68;;;4.57;;
28170;SDS011;15458;53.346;-1.688;2023-05-19T01:11:47;8.65;;;4.22;;
28170;SDS011;15458;53.346;-1.688;2023-05-19T01:14:18;8.38;;;4.45;;
28170;SDS011;15458;53.346;-1.688;2023-05-19T01:16:53;14.15;;;4.43;;
28170;SDS011;15458;53.346;-1.688;2023-05-19T01:20:33;13.52;;;4.57;;
28170;SDS011;15458;53.346;-1.688;2023-05-19T01:31:42;12.75;;;4.38;;
28170;SDS011;15458;53.346;-1.688;2023-05-19T01:34:12;12.45;;;4.95;;
28170;SDS011;15458;53.346;-1.688;2023-05-19T01:36:41;10.55;;;4.90;;
28170;SDS011;15458;53.346;-1.688;2023-05-19T01:39:12;11.13;;;5.28;;
28170;SDS011;15458;53.346;-1.688;2023-05-19T01:41:41;13.02;;;4.80;;
28170;SDS011;15458;53.346;-1.688;2023-05-19T01:44:11;12.48;;;5.20;;
28170;SDS011;15458;53.346;-1.688;2023-05-19T01:46:38;13.63;;;4.85;;
28170;SDS011;15458;53.346;-1.688;2023-05-19T01:49:07;10.68;;;4.90;;
28170;SDS011;15458;53.346;-1.688;2023-05-19T01:51:34;8.90;;;4.70;;
28170;SDS011;15458;53.346;-1.688;2023-05-19T01:54:00;7.78;;;4.70;;
28170;SDS011;15458;53.346;-1.688;2023-05-19T01:56:49;10.65;;;4.63;;
28170;SDS011;15458;53.346;-1.688;2023-05-19T02:02:25;11.57;;;4.60;;
28170;SDS011;15458;53.346;-1.688;2023-05-19T02:05:12;10.02;;;4.43;;
28170;SDS011;15458;53.346;-1.688;2023-05-19T02:08:17;13.48;;;4.35;;
28170;SDS011;15458;53.346;-1.688;2023-05-19T02:10:59;13.43;;;4.85;;
28170;SDS011;15458;53.346;-1.688;2023-05-19T02:13:33;9.40;;;4.18;;
28170;SDS011;15458;53.346;-1.688;2023-05-19T02:16:02;13.15;;;4.70;;
28170;SDS011;15458;53.346;-1.688;2023-05-19T02:18:31;11.75;;;4.88;;
28170;SDS011;15458;53.346;-1.688;2023-05-19T02:20:58;10.63;;;4.90;;
28170;SDS011;15458;53.346;-1.688;2023-05-19T02:23:23;14.48;;;5.45;;
28170;SDS011;15458;53.346;-1.688;2023-05-19T02:25:50;11.23;;;4.28;;
28170;SDS011;15458;53.346;-1.688;2023-05-19T02:28:16;10.40;;;4.32;;
28170;SDS011;15458;53.346;-1.688;2023-05-19T02:30:43;11.43;;;4.30;;
28170;SDS011;15458;53.346;-1.688;2023-05-19T02:47:30;12.73;;;3.92;;
28170;SDS011;15458;53.346;-1.688;2023-05-19T02:49:57;9.18;;;3.10;;
28170;SDS011;15458;53.346;-1.688;2023-05-19T02:52:24;7.63;;;3.78;;
28170;SDS011;15458;53.346;-1.688;2023-05-19T02:54:55;9.05;;;3.47;;
28170;SDS011;15458;53.346;-1.688;2023-05-19T02:57:23;7.10;;;3.47;;
28170;SDS011;15458;53.346;-1.688;2023-05-19T02:59:56;7.32;;;3.97;;
28170;SDS011;15458;53.346;-1.688;2023-05-19T03:02:22;10.00;;;3.25;;
28170;SDS011;15458;53.346;-1.688;2023-05-19T03:04:49;6.25;;;2.85;;
28170;SDS011;15458;53.346;-1.688;2023-05-19T03:07:15;7.72;;;3.70;;
28170;SDS011;15458;53.346;-1.688;2023-05-19T03:09:42;7.95;;;3.10;;
28170;SDS011;15458;53.346;-1.688;2023-05-19T03:12:11;6.05;;;3.15;;
28170;SDS011;15458;53.346;-1.688;2023-05-19T03:14:38;9.57;;;3.45;;
28170;SDS011;15458;53.346;-1.688;2023-05-19T03:17:05;7.32;;;3.55;;
28170;SDS011;15458;53.346;-1.688;2023-05-19T03:19:34;6.47;;;2.88;;
28170;SDS011;15458;53.346;-1.688;2023-05-19T03:22:00;8.80;;;3.47;;
28170;SDS011;15458;53.346;-1.688;2023-05-19T03:24:26;7.70;;;3.13;;
28170;SDS011;15458;53.346;-1.688;2023-05-19T03:26:55;5.80;;;3.13;;
28170;SDS011;15458;53.346;-1.688;2023-05-19T03:29:21;8.77;;;3.38;;
28170;SDS011;15458;53.346;-1.688;2023-05-19T03:31:47;11.32;;;3.45;;
28170;SDS011;15458;53.346;-1.688;2023-05-19T03:34:16;6.75;;;2.63;;
28170;SDS011;15458;53.346;-1.688;2023-05-19T03:36:46;8.10;;;2.72;;
28170;SDS011;15458;53.346;-1.688;2023-05-19T03:39:14;8.88;;;3.22;;
28170;SDS011;15458;53.346;-1.688;2023-05-19T03:41:46;9.52;;;3.47;;
28170;SDS011;15458;53.346;-1.688;2023-05-19T03:44:15;8.85;;;3.95;;
28170;SDS011;15458;53.346;-1.688;2023-05-19T03:46:40;8.35;;;3.85;;
28170;SDS011;15458;53.346;-1.688;2023-05-19T03:49:08;9.30;;;3.80;;
28170;SDS011;15458;53.346;-1.688;2023-05-19T03:51:36;9.55;;;3.55;;
28170;SDS011;15458;53.346;-1.688;2023-05-19T03:54:02;10.52;;;3.65;;
28170;SDS011;15458;53.346;-1.688;2023-05-19T03:56:28;11.35;;;4.10;;
28170;SDS011;15458;53.346;-1.688;2023-05-19T03:58:54;6.50;;;3.72;;
28170;SDS011;15458;53.346;-1.688;2023-05-19T04:01:20;10.05;;;4.13;;
28170;SDS011;15458;53.346;-1.688;2023-05-19T04:03:51;7.18;;;3.58;;
28170;SDS011;15458;53.346;-1.688;2023-05-19T04:06:24;9.30;;;3.65;;
28170;SDS011;15458;53.346;-1.688;2023-05-19T04:08:55;5.45;;;3.33;;
28170;SDS011;15458;53.346;-1.688;2023-05-19T04:11:21;8.20;;;3.45;;
28170;SDS011;15458;53.346;-1.688;2023-05-19T04:13:46;8.10;;;3.10;;
28170;SDS011;15458;53.346;-1.688;2023-05-19T04:16:12;10.63;;;3.55;;
28170;SDS011;15458;53.346;-1.688;2023-05-19T04:18:39;13.88;;;3.25;;
28170;SDS011;15458;53.346;-1.688;2023-05-19T04:21:04;9.00;;;3.40;;
28170;SDS011;15458;53.346;-1.688;2023-05-19T04:23:35;12.35;;;3.92;;
28170;SDS011;15458;53.346;-1.688;2023-05-19T04:26:01;9.30;;;3.58;;
28170;SDS011;15458;53.346;-1.688;2023-05-19T04:28:27;8.40;;;3.78;;
28170;SDS011;15458;53.346;-1.688;2023-05-19T04:30:54;9.75;;;4.40;;
28170;SDS011;15458;53.346;-1.688;2023-05-19T04:33:22;8.02;;;4.05;;
28170;SDS011;15458;53.346;-1.688;2023-05-19T04:35:48;9.32;;;4.20;;
28170;SDS011;15458;53.346;-1.688;2023-05-19T04:38:16;8.82;;;4.28;;
28170;SDS011;15458;53.346;-1.688;2023-05-19T04:40:44;13.15;;;4.38;;
28170;SDS011;15458;53.346;-1.688;2023-05-19T04:43:09;9.05;;;4.47;;
28170;SDS011;15458;53.346;-1.688;2023-05-19T04:45:35;10.55;;;4.18;;
28170;SDS011;15458;53.346;-1.688;2023-05-19T04:48:01;6.80;;;3.83;;
28170;SDS011;15458;53.346;-1.688;2023-05-19T04:50:30;10.23;;;4.35;;
28170;SDS011;15458;53.346;-1.688;2023-05-19T04:52:57;8.20;;;4.05;;
28170;SDS011;15458;53.346;-1.688;2023-05-19T04:55:23;11.70;;;4.30;;
28170;SDS011;15458;53.346;-1.688;2023-05-19T04:57:49;9.13;;;3.97;;
28170;SDS011;15458;53.346;-1.688;2023-05-19T05:00:15;11.50;;;5.25;;
28170;SDS011;15458;53.346;-1.688;2023-05-19T05:02:41;7.85;;;4.05;;
28170;SDS011;15458;53.346;-1.688;2023-05-19T05:05:07;8.75;;;4.82;;
28170;SDS011;15458;53.346;-1.688;2023-05-19T05:07:34;9.43;;;4.72;;
28170;SDS011;15458;53.346;-1.688;2023-05-19T05:10:00;13.60;;;5.10;;
28170;SDS011;15458;53.346;-1.688;2023-05-19T05:12:28;6.50;;;3.83;;
28170;SDS011;15458;53.346;-1.688;2023-05-19T05:14:55;8.70;;;3.83;;
28170;SDS011;15458;53.346;-1.688;2023-05-19T05:17:22;11.30;;;5.07;;
28170;SDS011;15458;53.346;-1.688;2023-05-19T05:19:50;13.02;;;4.85;;
28170;SDS011;15458;53.346;-1.688;2023-05-19T05:22:16;10.75;;;4.40;;
28170;SDS011;15458;53.346;-1.688;2023-05-19T05:24:42;10.07;;;4.30;;
28170;SDS011;15458;53.346;-1.688;2023-05-19T05:27:08;9.52;;;3.88;;
28170;SDS011;15458;53.346;-1.688;2023-05-19T05:29:36;12.00;;;5.15;;
28170;SDS011;15458;53.346;-1.688;2023-05-19T05:32:01;9.52;;;3.15;;
28170;SDS011;15458;53.346;-1.688;2023-05-19T05:34:27;9.73;;;3.42;;
28170;SDS011;15458;53.346;-1.688;2023-05-19T05:36:58;8.07;;;3.97;;
28170;SDS011;15458;53.346;-1.688;2023-05-19T05:50:28;5.55;;;2.67;;
28170;SDS011;15458;53.346;-1.688;2023-05-19T05:52:55;8.48;;;2.60;;
28170;SDS011;15458;53.346;-1.688;2023-05-19T05:55:23;7.28;;;2.67;;
28170;SDS011;15458;53.346;-1.688;2023-05-19T05:57:51;5.88;;;2.55;;
28170;SDS011;15458;53.346;-1.688;2023-05-19T06:00:21;7.88;;;2.38;;
28170;SDS011;15458;53.346;-1.688;2023-05-19T06:02:48;7.82;;;2.72;;
28170;SDS011;15458;53.346;-1.688;2023-05-19T06:05:15;5.30;;;2.53;;
28170;SDS011;15458;53.346;-1.688;2023-05-19T06:07:45;8.55;;;2.65;;
28170;SDS011;15458;53.346;-1.688;2023-05-19T06:10:12;9.00;;;2.80;;
28170;SDS011;15458;53.346;-1.688;2023-05-19T06:12:39;6.93;;;2.60;;
28170;SDS011;15458;53.346;-1.688;2023-05-19T06:15:07;12.65;;;3.10;;
28170;SDS011;15458;53.346;-1.688;2023-05-19T06:17:33;5.30;;;2.50;;
28170;SDS011;15458;53.346;-1.688;2023-05-19T06:20:05;5.10;;;2.50;;
28170;SDS011;15458;53.346;-1.688;2023-05-19T06:22:38;7.20;;;2.63;;
28170;SDS011;15458;53.346;-1.688;2023-05-19T06:33:22;6.03;;;2.90;;
28170;SDS011;15458;53.346;-1.688;2023-05-19T06:35:50;5.60;;;2.50;;
28170;SDS011;15458;53.346;-1.688;2023-05-19T06:38:20;7.72;;;3.25;;
28170;SDS011;15458;53.346;-1.688;2023-05-19T06:40:48;7.50;;;3.10;;
28170;SDS011;15458;53.346;-1.688;2023-05-19T06:43:14;4.57;;;2.50;;
28170;SDS011;15458;53.346;-1.688;2023-05-19T06:45:49;8.38;;;3.30;;
28170;SDS011;15458;53.346;-1.688;2023-05-19T06:48:16;7.13;;;2.83;;
28170;SDS011;15458;53.346;-1.688;2023-05-19T06:53:19;8.52;;;3.47;;
28170;SDS011;15458;53.346;-1.688;2023-05-19T07:01:03;5.45;;;2.80;;
28170;SDS011;15458;53.346;-1.688;2023-05-19T07:03:29;8.50;;;3.03;;
28170;SDS011;15458;53.346;-1.688;2023-05-19T07:05:55;9.20;;;2.70;;
28170;SDS011;15458;53.346;-1.688;2023-05-19T07:08:23;10.32;;;3.55;;
28170;SDS011;15458;53.346;-1.688;2023-05-19T07:10:51;7.82;;;3.50;;
28170;SDS011;15458;53.346;-1.688;2023-05-19T07:13:20;6.47;;;3.10;;
28170;SDS011;15458;53.346;-1.688;2023-05-19T07:15:46;5.72;;;3.00;;
28170;SDS011;15458;53.346;-1.688;2023-05-19T07:18:16;6.45;;;3.05;;
28170;SDS011;15458;53.346;-1.688;2023-05-19T07:23:12;9.07;;;3.22;;
28170;SDS011;15458;53.346;-1.688;2023-05-19T07:25:38;15.77;;;4.70;;
28170;SDS011;15458;53.346;-1.688;2023-05-19T07:28:08;13.20;;;3.60;;
28170;SDS011;15458;53.346;-1.688;2023-05-19T07:30:45;8.93;;;3.30;;
28170;SDS011;15458;53.346;-1.688;2023-05-19T07:35:47;7.53;;;3.38;;
28170;SDS011;15458;53.346;-1.688;2023-05-19T07:38:14;5.00;;;2.80;;
28170;SDS011;15458;53.346;-1.688;2023-05-19T07:40:40;5.15;;;2.75;;
28170;SDS011;15458;53.346;-1.688;2023-05-19T07:43:08;5.22;;;3.10;;
28170;SDS011;15458;53.346;-1.688;2023-05-19T07:59:45;3.92;;;2.70;;
28170;SDS011;15458;53.346;-1.688;2023-05-19T08:02:11;7.03;;;2.67;;
28170;SDS011;15458;53.346;-1.688;2023-05-19T08:04:37;4.72;;;2.63;;
28170;SDS011;15458;53.346;-1.688;2023-05-19T08:07:05;7.63;;;2.95;;
28170;SDS011;15458;53.346;-1.688;2023-05-19T08:09:31;6.55;;;3.10;;
28170;SDS011;15458;53.346;-1.688;2023-05-19T08:12:00;6.65;;;3.13;;
28170;SDS011;15458;53.346;-1.688;2023-05-19T08:14:26;11.38;;;3.13;;
28170;SDS011;15458;53.346;-1.688;2023-05-19T08:16:53;6.32;;;3.05;;
28170;SDS011;15458;53.346;-1.688;2023-05-19T08:19:21;5.65;;;3.05;;
28170;SDS011;15458;53.346;-1.688;2023-05-19T08:21:50;5.80;;;3.10;;
28170;SDS011;15458;53.346;-1.688;2023-05-19T08:24:16;3.80;;;2.63;;
28170;SDS011;15458;53.346;-1.688;2023-05-19T08:26:42;2.90;;;1.75;;
28170;SDS011;15458;53.346;-1.688;2023-05-19T08:29:08;1.95;;;1.58;;
28170;SDS011;15458;53.346;-1.688;2023-05-19T08:31:34;2.00;;;1.65;;
28170;SDS011;15458;53.346;-1.688;2023-05-19T08:33:59;1.50;;;1.00;;
28170;SDS011;15458;53.346;-1.688;2023-05-19T08:36:25;1.25;;;1.00;;
28170;SDS011;15458;53.346;-1.688;2023-05-19T08:38:51;1.23;;;0.90;;
28170;SDS011;15458;53.346;-1.688;2023-05-19T08:41:20;1.15;;;1.05;;
28170;SDS011;15458;53.346;-1.688;2023-05-19T08:43:47;1.35;;;1.08;;
28170;SDS011;15458;53.346;-1.688;2023-05-19T08:46:24;1.15;;;1.00;;
28170;SDS011;15458;53.346;-1.688;2023-05-19T09:12:54;1.25;;;0.98;;
28170;SDS011;15458;53.346;-1.688;2023-05-19T09:46:23;3.97;;;1.77;;
28170;SDS011;15458;53.346;-1.688;2023-05-19T09:48:56;2.28;;;1.50;;
28170;SDS011;15458;53.346;-1.688;2023-05-19T09:51:22;2.05;;;1.63;;
28170;SDS011;15458;53.346;-1.688;2023-05-19T09:53:48;2.63;;;1.70;;
28170;SDS011;15458;53.346;-1.688;2023-05-19T09:56:15;2.47;;;1.88;;
28170;SDS011;15458;53.346;-1.688;2023-05-19T09:58:41;3.13;;;2.22;;
28170;SDS011;15458;53.346;-1.688;2023-05-19T10:01:08;3.58;;;1.73;;
28170;SDS011;15458;53.346;-1.688;2023-05-19T10:03:34;4.82;;;1.90;;
28170;SDS011;15458;53.346;-1.688;2023-05-19T10:06:00;2.55;;;1.75;;
28170;SDS011;15458;53.346;-1.688;2023-05-19T10:08:28;3.50;;;1.67;;
28170;SDS011;15458;53.346;-1.688;2023-05-19T10:10:54;4.30;;;1.95;;
28170;SDS011;15458;53.346;-1.688;2023-05-19T10:13:28;3.45;;;2.00;;
28170;SDS011;15458;53.346;-1.688;2023-05-19T10:15:54;2.47;;;1.98;;
28170;SDS011;15458;53.346;-1.688;2023-05-19T10:18:24;7.50;;;2.75;;
28170;SDS011;15458;53.346;-1.688;2023-05-19T10:20:51;4.45;;;2.60;;
28170;SDS011;15458;53.346;-1.688;2023-05-19T10:23:17;6.30;;;3.90;;
28170;SDS011;15458;53.346;-1.688;2023-05-19T10:25:43;5.10;;;2.85;;
28170;SDS011;15458;53.346;-1.688;2023-05-19T10:28:11;6.32;;;3.22;;
28170;SDS011;15458;53.346;-1.688;2023-05-19T10:30:42;5.05;;;3.00;;
28170;SDS011;15458;53.346;-1.688;2023-05-19T10:33:17;6.35;;;3.40;;
28170;SDS011;15458;53.346;-1.688;2023-05-19T11:07:39;4.07;;;2.78;;
28170;SDS011;15458;53.346;-1.688;2023-05-19T11:10:21;9.32;;;3.40;;
28170;SDS011;15458;53.346;-1.688;2023-05-19T11:35:17;5.38;;;3.30;;
28170;SDS011;15458;53.346;-1.688;2023-05-19T12:00:06;8.85;;;5.32;;
28170;SDS011;15458;53.346;-1.688;2023-05-19T12:02:33;9.85;;;6.07;;
28170;SDS011;15458;53.346;-1.688;2023-05-19T12:05:16;12.30;;;6.45;;
28170;SDS011;15458;53.346;-1.688;2023-05-19T13:02:30;10.18;;;5.15;;
28170;SDS011;15458;53.346;-1.688;2023-05-19T13:05:01;8.23;;;4.40;;
28170;SDS011;15458;53.346;-1.688;2023-05-19T13:07:28;9.35;;;5.10;;
28170;SDS011;15458;53.346;-1.688;2023-05-19T13:10:06;12.35;;;4.90;;
28170;SDS011;15458;53.346;-1.688;2023-05-19T13:12:34;10.25;;;4.93;;
28170;SDS011;15458;53.346;-1.688;2023-05-19T13:14:59;11.38;;;4.68;;
28170;SDS011;15458;53.346;-1.688;2023-05-19T13:17:28;10.05;;;4.82;;
28170;SDS011;15458;53.346;-1.688;2023-05-19T13:20:01;8.27;;;4.38;;
28170;SDS011;15458;53.346;-1.688;2023-05-19T13:22:33;11.15;;;4.45;;
28170;SDS011;15458;53.346;-1.688;2023-05-19T14:00:14;14.25;;;4.97;;
28170;SDS011;15458;53.346;-1.688;2023-05-19T14:02:42;9.55;;;4.45;;
28170;SDS011;15458;53.346;-1.688;2023-05-19T14:35:59;7.60;;;3.10;;
28170;SDS011;15458;53.346;-1.688;2023-05-19T14:41:01;8.20;;;3.25;;
28170;SDS011;15458;53.346;-1.688;2023-05-19T14:43:27;4.53;;;2.92;;
28170;SDS011;15458;53.346;-1.688;2023-05-19T14:45:53;13.32;;;5.55;;
28170;SDS011;15458;53.346;-1.688;2023-05-19T14:48:18;7.20;;;3.65;;
28170;SDS011;15458;53.346;-1.688;2023-05-19T14:50:45;6.88;;;3.05;;
28170;SDS011;15458;53.346;-1.688;2023-05-19T14:53:14;8.63;;;2.93;;
28170;SDS011;15458;53.346;-1.688;2023-05-19T14:55:40;4.00;;;2.67;;
28170;SDS011;15458;53.346;-1.688;2023-05-19T14:58:06;8.88;;;4.20;;
28170;SDS011;15458;53.346;-1.688;2023-05-19T15:00:32;5.38;;;3.10;;
28170;SDS011;15458;53.346;-1.688;2023-05-19T15:02:59;4.20;;;3.03;;
28170;SDS011;15458;53.346;-1.688;2023-05-19T15:05:26;4.65;;;2.90;;
28170;SDS011;15458;53.346;-1.688;2023-05-19T15:07:51;6.50;;;2.65;;
28170;SDS011;15458;53.346;-1.688;2023-05-19T15:10:18;4.53;;;3.22;;
28170;SDS011;15458;53.346;-1.688;2023-05-19T15:12:46;6.97;;;2.90;;
28170;SDS011;15458;53.346;-1.688;2023-05-19T15:15:12;3.85;;;2.78;;
28170;SDS011;15458;53.346;-1.688;2023-05-19T15:17:39;7.88;;;3.08;;
28170;SDS011;15458;53.346;-1.688;2023-05-19T15:20:06;4.40;;;2.58;;
28170;SDS011;15458;53.346;-1.688;2023-05-19T15:22:32;4.20;;;2.75;;
28170;SDS011;15458;53.346;-1.688;2023-05-19T15:24:58;4.60;;;2.53;;
28170;SDS011;15458;53.346;-1.688;2023-05-19T15:27:25;4.53;;;2.17;;
28170;SDS011;15458;53.346;-1.688;2023-05-19T15:29:51;3.97;;;2.10;;
28170;SDS011;15458;53.346;-1.688;2023-05-19T15:32:16;8.32;;;3.53;;
28170;SDS011;15458;53.346;-1.688;2023-05-19T15:34:42;2.17;;;1.88;;
28170;SDS011;15458;53.346;-1.688;2023-05-19T15:37:08;6.07;;;2.13;;
28170;SDS011;15458;53.346;-1.688;2023-05-19T15:39:34;2.92;;;1.95;;
28170;SDS011;15458;53.346;-1.688;2023-05-19T15:42:00;3.33;;;2.03;;
28170;SDS011;15458;53.346;-1.688;2023-05-19T15:44:26;3.58;;;1.77;;
28170;SDS011;15458;53.346;-1.688;2023-05-19T15:46:51;3.00;;;1.88;;
28170;SDS011;15458;53.346;-1.688;2023-05-19T15:49:17;3.88;;;1.92;;
28170;SDS011;15458;53.346;-1.688;2023-05-19T15:51:43;2.45;;;1.85;;
28170;SDS011;15458;53.346;-1.688;2023-05-19T15:54:09;2.33;;;1.90;;
28170;SDS011;15458;53.346;-1.688;2023-05-19T15:56:35;3.20;;;2.13;;
28170;SDS011;15458;53.346;-1.688;2023-05-19T15:59:01;5.20;;;2.63;;
28170;SDS011;15458;53.346;-1.688;2023-05-19T16:01:26;3.55;;;1.98;;
28170;SDS011;15458;53.346;-1.688;2023-05-19T16:03:53;6.70;;;1.80;;
28170;SDS011;15458;53.346;-1.688;2023-05-19T16:06:19;4.40;;;2.05;;
28170;SDS011;15458;53.346;-1.688;2023-05-19T16:08:45;5.95;;;2.25;;
28170;SDS011;15458;53.346;-1.688;2023-05-19T16:11:11;2.75;;;1.63;;
28170;SDS011;15458;53.346;-1.688;2023-05-19T16:13:36;4.57;;;1.50;;
28170;SDS011;15458;53.346;-1.688;2023-05-19T16:16:02;6.45;;;2.03;;
28170;SDS011;15458;53.346;-1.688;2023-05-19T16:18:29;3.88;;;1.48;;
28170;SDS011;15458;53.346;-1.688;2023-05-19T16:20:57;3.17;;;1.98;;
28170;SDS011;15458;53.346;-1.688;2023-05-19T16:23:25;5.45;;;1.75;;
28170;SDS011;15458;53.346;-1.688;2023-05-19T16:25:51;3.40;;;1.98;;
28170;SDS011;15458;53.346;-1.688;2023-05-19T16:28:22;2.95;;;2.00;;
28170;SDS011;15458;53.346;-1.688;2023-05-19T16:30:48;2.42;;;1.40;;
28170;SDS011;15458;53.346;-1.688;2023-05-19T16:33:22;2.65;;;1.40;;
28170;SDS011;15458;53.346;-1.688;2023-05-19T16:35:48;2.33;;;1.58;;
28170;SDS011;15458;53.346;-1.688;2023-05-19T16:38:14;3.10;;;1.85;;
28170;SDS011;15458;53.346;-1.688;2023-05-19T16:40:40;3.55;;;2.20;;
28170;SDS011;15458;53.346;-1.688;2023-05-19T16:43:06;3.08;;;1.35;;
28170;SDS011;15458;53.346;-1.688;2023-05-19T16:45:33;3.78;;;1.77;;
28170;SDS011;15458;53.346;-1.688;2023-05-19T16:47:59;3.17;;;1.50;;
28170;SDS011;15458;53.346;-1.688;2023-05-19T16:50:25;5.18;;;1.60;;
28170;SDS011;15458;53.346;-1.688;2023-05-19T16:52:51;6.07;;;1.60;;
28170;SDS011;15458;53.346;-1.688;2023-05-19T16:55:17;2.50;;;1.52;;
28170;SDS011;15458;53.346;-1.688;2023-05-19T16:57:46;1.90;;;1.52;;
28170;SDS011;15458;53.346;-1.688;2023-05-19T17:00:13;2.47;;;1.75;;
28170;SDS011;15458;53.346;-1.688;2023-05-19T17:02:40;2.42;;;1.55;;
28170;SDS011;15458;53.346;-1.688;2023-05-19T17:05:07;3.15;;;1.70;;
28170;SDS011;15458;53.346;-1.688;2023-05-19T17:07:34;3.42;;;1.60;;
28170;SDS011;15458;53.346;-1.688;2023-05-19T17:10:03;5.07;;;3.42;;
28170;SDS011;15458;53.346;-1.688;2023-05-19T17:12:38;9.45;;;3.95;;
28170;SDS011;15458;53.346;-1.688;2023-05-19T17:15:06;10.30;;;4.25;;
28170;SDS011;15458;53.346;-1.688;2023-05-19T17:17:32;8.30;;;4.63;;
28170;SDS011;15458;53.346;-1.688;2023-05-19T17:20:05;7.35;;;4.57;;
28170;SDS011;15458;53.346;-1.688;2023-05-19T17:22:37;9.10;;;5.15;;
28170;SDS011;15458;53.346;-1.688;2023-05-19T17:25:04;11.40;;;5.40;;
28170;SDS011;15458;53.346;-1.688;2023-05-19T17:27:32;11.80;;;4.85;;
28170;SDS011;15458;53.346;-1.688;2023-05-19T17:30:01;10.45;;;5.18;;
28170;SDS011;15458;53.346;-1.688;2023-05-19T17:32:27;8.98;;;5.50;;
28170;SDS011;15458;53.346;-1.688;2023-05-19T17:34:59;13.35;;;4.88;;
28170;SDS011;15458;53.346;-1.688;2023-05-19T17:37:30;9.63;;;5.05;;
28170;SDS011;15458;53.346;-1.688;2023-05-19T17:39:56;10.10;;;5.05;;
28170;SDS011;15458;53.346;-1.688;2023-05-19T17:42:24;9.65;;;6.07;;
28170;SDS011;15458;53.346;-1.688;2023-05-19T17:44:51;12.13;;;6.53;;
28170;SDS011;15458;53.346;-1.688;2023-05-19T17:47:22;15.65;;;7.50;;
28170;SDS011;15458;53.346;-1.688;2023-05-19T17:49:48;13.23;;;7.32;;
28170;SDS011;15458;53.346;-1.688;2023-05-19T17:54:49;12.65;;;7.25;;
28170;SDS011;15458;53.346;-1.688;2023-05-19T17:57:15;15.23;;;7.75;;
28170;SDS011;15458;53.346;-1.688;2023-05-19T17:59:44;14.43;;;7.43;;
28170;SDS011;15458;53.346;-1.688;2023-05-19T18:02:13;13.98;;;7.07;;
28170;SDS011;15458;53.346;-1.688;2023-05-19T18:04:43;19.27;;;6.72;;
28170;SDS011;15458;53.346;-1.688;2023-05-19T18:07:14;13.07;;;6.95;;
28170;SDS011;15458;53.346;-1.688;2023-05-19T18:09:44;15.27;;;7.38;;
28170;SDS011;15458;53.346;-1.688;2023-05-19T18:12:12;20.25;;;8.32;;
28170;SDS011;15458;53.346;-1.688;2023-05-19T18:14:39;14.15;;;7.75;;
28170;SDS011;15458;53.346;-1.688;2023-05-19T18:17:05;15.68;;;8.35;;
28170;SDS011;15458;53.346;-1.688;2023-05-19T18:19:31;13.35;;;8.07;;
28170;SDS011;15458;53.346;-1.688;2023-05-19T18:21:57;15.32;;;7.75;;
28170;SDS011;15458;53.346;-1.688;2023-05-19T18:24:22;16.48;;;8.40;;
28170;SDS011;15458;53.346;-1.688;2023-05-19T18:26:48;19.25;;;8.70;;
28170;SDS011;15458;53.346;-1.688;2023-05-19T18:29:16;15.25;;;6.53;;
28170;SDS011;15458;53.346;-1.688;2023-05-19T18:31:42;13.80;;;7.53;;
28170;SDS011;15458;53.346;-1.688;2023-05-19T18:34:11;20.48;;;8.38;;
28170;SDS011;15458;53.346;-1.688;2023-05-19T18:36:37;13.98;;;7.07;;
28170;SDS011;15458;53.346;-1.688;2023-05-19T18:39:03;14.48;;;7.10;;
28170;SDS011;15458;53.346;-1.688;2023-05-19T18:41:29;13.45;;;6.50;;
28170;SDS011;15458;53.346;-1.688;2023-05-19T18:43:56;14.75;;;8.40;;
28170;SDS011;15458;53.346;-1.688;2023-05-19T18:46:22;15.48;;;7.57;;
28170;SDS011;15458;53.346;-1.688;2023-05-19T18:48:48;12.30;;;6.30;;
28170;SDS011;15458;53.346;-1.688;2023-05-19T18:51:16;17.13;;;8.05;;
28170;SDS011;15458;53.346;-1.688;2023-05-19T18:53:48;14.32;;;8.35;;
28170;SDS011;15458;53.346;-1.688;2023-05-19T18:56:25;16.15;;;7.93;;
28170;SDS011;15458;53.346;-1.688;2023-05-19T18:58:51;12.82;;;7.80;;
28170;SDS011;15458;53.346;-1.688;2023-05-19T19:01:20;13.77;;;7.43;;
28170;SDS011;15458;53.346;-1.688;2023-05-19T19:03:47;15.52;;;7.90;;
28170;SDS011;15458;53.346;-1.688;2023-05-19T19:06:14;20.52;;;9.48;;
28170;SDS011;15458;53.346;-1.688;2023-05-19T19:08:44;16.10;;;8.55;;
28170;SDS011;15458;53.346;-1.688;2023-05-19T19:11:11;19.25;;;8.02;;
28170;SDS011;15458;53.346;-1.688;2023-05-19T19:13:37;16.00;;;8.40;;
28170;SDS011;15458;53.346;-1.688;2023-05-19T19:16:04;26.95;;;9.02;;
28170;SDS011;15458;53.346;-1.688;2023-05-19T19:18:31;16.95;;;8.55;;
28170;SDS011;15458;53.346;-1.688;2023-05-19T19:21:00;17.77;;;7.88;;
28170;SDS011;15458;53.346;-1.688;2023-05-19T19:23:34;14.88;;;8.02;;
28170;SDS011;15458;53.346;-1.688;2023-05-19T19:26:03;15.23;;;8.48;;
28170;SDS011;15458;53.346;-1.688;2023-05-19T19:28:28;15.02;;;7.93;;
28170;SDS011;15458;53.346;-1.688;2023-05-19T19:30:58;20.40;;;8.70;;
28170;SDS011;15458;53.346;-1.688;2023-05-19T19:33:25;14.10;;;8.70;;
28170;SDS011;15458;53.346;-1.688;2023-05-19T19:35:51;18.10;;;8.43;;
28170;SDS011;15458;53.346;-1.688;2023-05-19T19:38:17;21.17;;;8.75;;
28170;SDS011;15458;53.346;-1.688;2023-05-19T19:40:44;15.63;;;8.02;;
28170;SDS011;15458;53.346;-1.688;2023-05-19T19:43:16;13.85;;;7.20;;
28170;SDS011;15458;53.346;-1.688;2023-05-19T19:45:41;17.88;;;7.95;;
28170;SDS011;15458;53.346;-1.688;2023-05-19T19:48:07;14.60;;;7.75;;
28170;SDS011;15458;53.346;-1.688;2023-05-19T19:50:33;14.88;;;8.27;;
28170;SDS011;15458;53.346;-1.688;2023-05-19T19:52:59;14.77;;;7.60;;
28170;SDS011;15458;53.346;-1.688;2023-05-19T19:55:25;16.92;;;8.68;;
28170;SDS011;15458;53.346;-1.688;2023-05-19T19:57:50;18.27;;;8.20;;
28170;SDS011;15458;53.346;-1.688;2023-05-19T20:00:17;15.40;;;7.97;;
28170;SDS011;15458;53.346;-1.688;2023-05-19T20:02:43;19.45;;;8.60;;
28170;SDS011;15458;53.346;-1.688;2023-05-19T20:05:08;18.98;;;8.90;;
28170;SDS011;15458;53.346;-1.688;2023-05-19T20:07:37;17.45;;;7.55;;
28170;SDS011;15458;53.346;-1.688;2023-05-19T20:10:02;18.60;;;8.18;;
28170;SDS011;15458;53.346;-1.688;2023-05-19T20:12:30;14.82;;;8.32;;
28170;SDS011;15458;53.346;-1.688;2023-05-19T20:14:56;18.98;;;8.98;;